Saugus, MA (01906)

12:34 PM EST on January 27, 2015 (GMT -0500)
East Side Melrose | Change Station
CLOSE
Current Station
Personal Weather Station
Location: Melrose, MA
Elevation: 115 ft
Nearby Weather Stations

Elev 115 ft 42.46 °N, 71.05 °W | Updated 5 seconds ago

Snow
Snow
17.5 °F
Feels Like 8 °F
N
7.0
Wind Variable Wind from NW
Gusts 11.5 mph

Today
High -- | Low -- °F
--% Chance of Precip.
Yesterday
High -- | Low -- °F
Precip. -- in
7:02 AM 4:51 PM
First Quarter, 56% visible
Pressure 29.50 in
Visibility 0.1 miles
Clouds
Windchill 8 °F
Dew Point 13 °F
Humidity 83%
Rainfall 0.00 in
Snow Depth Not available.
UV Not available.
Pollen .10 out of 12
Air Quality Not available.
Flu Activity Not available.
METAR KBOS 271654Z 34017G28KT 1/8SM R04R/1200V1400FT +SN BLSN FZFG VV005 M09/M11 A2950 RMK AO2 PK WND 35028/1651 SLP988 P0008 T10941106

More Conditions Fewer Conditions

Pressure 29.50 in
Visibility 0.1 miles
Clouds
Windchill 8 °F
Dew Point 13 °F
Humidity 83%
Rainfall 0.00 in
Snow Depth Not available.
UV Not available.
Pollen .10 out of 12
Air Quality Not available.
Flu Activity Not available.
METAR KBOS 271654Z 34017G28KT 1/8SM R04R/1200V1400FT +SN BLSN FZFG VV005 M09/M11 A2950 RMK AO2 PK WND 35028/1651 SLP988 P0008 T10941106

More Conditions Fewer Conditions

10-Day Weather Forecast

Almanac

Astronomy

Jan. 27, 2015 Rise Set
Actual Time
Civil Twilight
Nautical Twilight
Astronomical Twilight
Moon
Length of Visible Light
Length of Day
Tomorrow will be .
, % of the Moon is Illuminated

Today's Extremes

State Highs State Lows

Community

WunderPhotos

Upload Photos

1,790,732 photos uploaded!

WunderBlogs® & News

Nearby

Air Quality

  Air Quality AQ Index Pollutant
Not available.

Snow Depth

Station Depth Elevation

Earthquake Activity

City Distance Mag. Time & Date
Minimum magnitude displayed is 2.5.

Coastal Water Temperatures

Place Temperature

Nearby Weather Stations